sensor_id;sensor_type;location;lat;lon;timestamp;pressure;altitude;pressure_sealevel;temperature;humidity
70009;BME280;59542;37.950;-122.338;2023-03-01T00:02:00;100752.44;;;11.15;77.23
70009;BME280;59542;37.950;-122.338;2023-03-01T00:04:26;100748.50;;;11.24;76.23
70009;BME280;59542;37.950;-122.338;2023-03-01T00:06:53;100731.53;;;11.36;77.47
70009;BME280;59542;37.950;-122.338;2023-03-01T00:09:19;100733.78;;;11.40;75.85
70009;BME280;59542;37.950;-122.338;2023-03-01T00:11:45;100731.31;;;11.38;76.88
70009;BME280;59542;37.950;-122.338;2023-03-01T00:14:11;100733.97;;;11.45;77.28
70009;BME280;59542;37.950;-122.338;2023-03-01T00:16:38;100734.25;;;11.68;78.19
70009;BME280;59542;37.950;-122.338;2023-03-01T00:19:05;100730.34;;;11.64;76.72
70009;BME280;59542;37.950;-122.338;2023-03-01T00:21:31;100731.13;;;11.71;75.83
70009;BME280;59542;37.950;-122.338;2023-03-01T00:23:57;100716.69;;;11.72;75.79
70009;BME280;59542;37.950;-122.338;2023-03-01T00:26:23;100722.47;;;11.69;75.08
70009;BME280;59542;37.950;-122.338;2023-03-01T00:28:50;100725.72;;;11.46;75.57
70009;BME280;59542;37.950;-122.338;2023-03-01T00:31:17;100729.53;;;11.63;74.27
70009;BME280;59542;37.950;-122.338;2023-03-01T00:33:44;100739.63;;;11.23;73.40
70009;BME280;59542;37.950;-122.338;2023-03-01T00:36:10;100748.47;;;10.32;74.13
70009;BME280;59542;37.950;-122.338;2023-03-01T00:38:37;100737.75;;;10.06;76.92
70009;BME280;59542;37.950;-122.338;2023-03-01T00:41:03;100745.91;;;9.71;77.37
70009;BME280;59542;37.950;-122.338;2023-03-01T00:43:30;100752.66;;;9.54;76.68
70009;BME280;59542;37.950;-122.338;2023-03-01T00:45:56;100749.13;;;9.34;78.34
70009;BME280;59542;37.950;-122.338;2023-03-01T00:48:26;100747.06;;;9.36;78.32
70009;BME280;59542;37.950;-122.338;2023-03-01T00:50:52;100742.44;;;9.10;78.72
70009;BME280;59542;37.950;-122.338;2023-03-01T00:53:17;100745.06;;;9.03;77.48
70009;BME280;59542;37.950;-122.338;2023-03-01T00:55:43;100739.09;;;8.94;77.35
70009;BME280;59542;37.950;-122.338;2023-03-01T00:58:09;100742.69;;;8.80;78.66
70009;BME280;59542;37.950;-122.338;2023-03-01T01:00:35;100738.97;;;8.75;78.66
70009;BME280;59542;37.950;-122.338;2023-03-01T01:03:01;100743.94;;;8.78;78.50
70009;BME280;59542;37.950;-122.338;2023-03-01T01:05:27;100737.94;;;8.76;78.06
70009;BME280;59542;37.950;-122.338;2023-03-01T01:07:52;100736.47;;;8.66;78.28
70009;BME280;59542;37.950;-122.338;2023-03-01T01:10:18;100748.22;;;8.72;77.90
70009;BME280;59542;37.950;-122.338;2023-03-01T01:12:44;100739.91;;;8.60;78.99
70009;BME280;59542;37.950;-122.338;2023-03-01T01:15:11;100737.63;;;8.57;79.16
70009;BME280;59542;37.950;-122.338;2023-03-01T01:17:39;100729.34;;;8.80;76.18
70009;BME280;59542;37.950;-122.338;2023-03-01T01:20:05;100725.63;;;8.75;76.88
70009;BME280;59542;37.950;-122.338;2023-03-01T01:22:31;100738.63;;;8.84;76.44
70009;BME280;59542;37.950;-122.338;2023-03-01T01:24:57;100737.13;;;8.75;76.80
70009;BME280;59542;37.950;-122.338;2023-03-01T01:27:23;100740.03;;;8.80;76.33
70009;BME280;59542;37.950;-122.338;2023-03-01T01:29:49;100737.13;;;8.75;77.37
70009;BME280;59542;37.950;-122.338;2023-03-01T01:32:15;100723.81;;;8.82;78.12
70009;BME280;59542;37.950;-122.338;2023-03-01T01:34:40;100730.19;;;8.81;77.51
70009;BME280;59542;37.950;-122.338;2023-03-01T01:37:06;100727.03;;;8.70;77.48
70009;BME280;59542;37.950;-122.338;2023-03-01T01:39:33;100723.84;;;8.54;77.18
70009;BME280;59542;37.950;-122.338;2023-03-01T01:42:00;100726.97;;;8.57;77.97
70009;BME280;59542;37.950;-122.338;2023-03-01T01:44:28;100731.91;;;8.60;78.16
70009;BME280;59542;37.950;-122.338;2023-03-01T01:49:25;100746.66;;;8.56;76.96
70009;BME280;59542;37.950;-122.338;2023-03-01T01:51:57;100740.69;;;8.33;77.74
70009;BME280;59542;37.950;-122.338;2023-03-01T01:54:27;100744.59;;;8.30;78.73
70009;BME280;59542;37.950;-122.338;2023-03-01T01:57:02;100743.06;;;8.42;79.64
70009;BME280;59542;37.950;-122.338;2023-03-01T01:59:28;100748.69;;;8.54;77.24
70009;BME280;59542;37.950;-122.338;2023-03-01T02:01:55;100750.16;;;8.35;77.43
70009;BME280;59542;37.950;-122.338;2023-03-01T02:04:24;100745.16;;;8.26;76.48
70009;BME280;59542;37.950;-122.338;2023-03-01T02:06:55;100749.00;;;8.16;76.06
70009;BME280;59542;37.950;-122.338;2023-03-01T02:09:23;100746.56;;;8.21;75.49
70009;BME280;59542;37.950;-122.338;2023-03-01T02:11:50;100736.66;;;8.15;74.78
70009;BME280;59542;37.950;-122.338;2023-03-01T02:14:16;100745.06;;;8.12;74.77
70009;BME280;59542;37.950;-122.338;2023-03-01T02:16:42;100733.06;;;8.23;73.76
70009;BME280;59542;37.950;-122.338;2023-03-01T02:19:09;100739.41;;;8.22;75.01
70009;BME280;59542;37.950;-122.338;2023-03-01T02:26:55;100720.66;;;8.37;74.84
70009;BME280;59542;37.950;-122.338;2023-03-01T02:29:24;100716.53;;;8.34;72.63
70009;BME280;59542;37.950;-122.338;2023-03-01T02:31:52;100712.13;;;8.48;72.13
70009;BME280;59542;37.950;-122.338;2023-03-01T02:34:20;100709.75;;;8.10;72.08
70009;BME280;59542;37.950;-122.338;2023-03-01T02:36:51;100711.44;;;7.90;73.70
70009;BME280;59542;37.950;-122.338;2023-03-01T02:39:20;100718.91;;;8.23;72.15
70009;BME280;59542;37.950;-122.338;2023-03-01T02:41:48;100722.44;;;8.30;70.31
70009;BME280;59542;37.950;-122.338;2023-03-01T02:44:15;100715.47;;;8.29;71.79
70009;BME280;59542;37.950;-122.338;2023-03-01T02:46:42;100704.97;;;8.27;70.95
70009;BME280;59542;37.950;-122.338;2023-03-01T02:56:53;100712.53;;;8.45;70.30
70009;BME280;59542;37.950;-122.338;2023-03-01T02:59:20;100720.00;;;8.56;67.11
70009;BME280;59542;37.950;-122.338;2023-03-01T03:01:47;100722.63;;;8.50;69.06
70009;BME280;59542;37.950;-122.338;2023-03-01T03:04:13;100729.88;;;8.62;67.49
70009;BME280;59542;37.950;-122.338;2023-03-01T03:06:45;100722.75;;;8.41;68.53
70009;BME280;59542;37.950;-122.338;2023-03-01T03:09:12;100729.44;;;8.09;68.86
70009;BME280;59542;37.950;-122.338;2023-03-01T03:11:38;100721.94;;;8.19;69.04
70009;BME280;59542;37.950;-122.338;2023-03-01T03:14:06;100723.47;;;8.29;69.88
70009;BME280;59542;37.950;-122.338;2023-03-01T03:16:44;100734.09;;;8.01;70.03
70009;BME280;59542;37.950;-122.338;2023-03-01T03:19:10;100728.31;;;7.76;71.36
70009;BME280;59542;37.950;-122.338;2023-03-01T03:21:37;100735.69;;;7.74;70.96
70009;BME280;59542;37.950;-122.338;2023-03-01T03:24:03;100736.94;;;7.56;71.36
70009;BME280;59542;37.950;-122.338;2023-03-01T03:26:29;100737.69;;;7.50;71.08
70009;BME280;59542;37.950;-122.338;2023-03-01T03:28:55;100745.16;;;7.40;72.40
70009;BME280;59542;37.950;-122.338;2023-03-01T03:31:21;100744.97;;;7.41;72.65
70009;BME280;59542;37.950;-122.338;2023-03-01T03:33:47;100739.22;;;7.59;71.04
70009;BME280;59542;37.950;-122.338;2023-03-01T03:36:20;100733.88;;;7.59;70.89
70009;BME280;59542;37.950;-122.338;2023-03-01T03:38:46;100739.97;;;7.53;70.48
70009;BME280;59542;37.950;-122.338;2023-03-01T03:41:12;100741.47;;;7.41;70.55
70009;BME280;59542;37.950;-122.338;2023-03-01T03:43:38;100726.06;;;7.36;72.70
70009;BME280;59542;37.950;-122.338;2023-03-01T03:46:05;100729.13;;;7.55;72.86
70009;BME280;59542;37.950;-122.338;2023-03-01T03:48:33;100726.66;;;7.53;72.53
70009;BME280;59542;37.950;-122.338;2023-03-01T03:50:59;100720.72;;;7.51;71.50
70009;BME280;59542;37.950;-122.338;2023-03-01T03:53:25;100730.78;;;7.56;72.72
70009;BME280;59542;37.950;-122.338;2023-03-01T03:55:52;100752.69;;;7.36;71.56
70009;BME280;59542;37.950;-122.338;2023-03-01T03:58:19;100749.63;;;7.18;72.97
70009;BME280;59542;37.950;-122.338;2023-03-01T04:00:46;100746.59;;;7.06;74.20
70009;BME280;59542;37.950;-122.338;2023-03-01T04:03:13;100746.13;;;7.18;75.04
70009;BME280;59542;37.950;-122.338;2023-03-01T04:05:40;100744.38;;;7.25;74.97
70009;BME280;59542;37.950;-122.338;2023-03-01T04:08:06;100738.44;;;7.08;76.04
70009;BME280;59542;37.950;-122.338;2023-03-01T04:10:34;100738.78;;;7.05;75.79
70009;BME280;59542;37.950;-122.338;2023-03-01T04:13:00;100738.88;;;7.11;75.38
70009;BME280;59542;37.950;-122.338;2023-03-01T04:15:26;100733.84;;;7.17;75.51
70009;BME280;59542;37.950;-122.338;2023-03-01T04:17:53;100726.47;;;7.19;76.37
70009;BME280;59542;37.950;-122.338;2023-03-01T04:20:20;100721.41;;;7.24;75.53
70009;BME280;59542;37.950;-122.338;2023-03-01T04:22:56;100725.50;;;7.41;74.57
70009;BME280;59542;37.950;-122.338;2023-03-01T04:25:23;100717.59;;;7.48;73.85
70009;BME280;59542;37.950;-122.338;2023-03-01T04:27:49;100722.97;;;7.33;74.80
70009;BME280;59542;37.950;-122.338;2023-03-01T04:30:15;100722.78;;;7.20;75.31
70009;BME280;59542;37.950;-122.338;2023-03-01T04:32:41;100719.94;;;7.21;76.05
70009;BME280;59542;37.950;-122.338;2023-03-01T04:35:07;100715.28;;;7.23;75.57
70009;BME280;59542;37.950;-122.338;2023-03-01T04:37:33;100715.81;;;7.55;73.21
70009;BME280;59542;37.950;-122.338;2023-03-01T04:40:00;100707.69;;;7.41;73.26
70009;BME280;59542;37.950;-122.338;2023-03-01T04:42:26;100712.06;;;7.49;73.13
70009;BME280;59542;37.950;-122.338;2023-03-01T04:44:52;100718.97;;;7.44;73.38
70009;BME280;59542;37.950;-122.338;2023-03-01T04:47:18;100718.66;;;7.53;73.74
70009;BME280;59542;37.950;-122.338;2023-03-01T04:49:43;100719.44;;;7.47;74.10
70009;BME280;59542;37.950;-122.338;2023-03-01T04:52:09;100725.06;;;7.59;72.23
70009;BME280;59542;37.950;-122.338;2023-03-01T04:54:35;100728.50;;;7.53;73.07
70009;BME280;59542;37.950;-122.338;2023-03-01T04:57:02;100720.41;;;7.61;72.78
70009;BME280;59542;37.950;-122.338;2023-03-01T04:59:28;100718.38;;;7.63;73.00
70009;BME280;59542;37.950;-122.338;2023-03-01T05:01:54;100717.03;;;7.74;73.66
70009;BME280;59542;37.950;-122.338;2023-03-01T05:04:21;100715.72;;;7.84;73.67
70009;BME280;59542;37.950;-122.338;2023-03-01T05:06:47;100709.41;;;7.71;73.89
70009;BME280;59542;37.950;-122.338;2023-03-01T05:09:13;100694.81;;;7.88;73.14
70009;BME280;59542;37.950;-122.338;2023-03-01T05:11:39;100684.16;;;7.88;73.01
70009;BME280;59542;37.950;-122.338;2023-03-01T05:14:05;100692.16;;;7.88;73.18
70009;BME280;59542;37.950;-122.338;2023-03-01T05:16:32;100691.66;;;7.78;72.13
70009;BME280;59542;37.950;-122.338;2023-03-01T05:18:59;100706.13;;;7.68;71.76
70009;BME280;59542;37.950;-122.338;2023-03-01T05:21:25;100730.34;;;7.74;70.99
70009;BME280;59542;37.950;-122.338;2023-03-01T05:23:51;100734.78;;;7.45;72.70
70009;BME280;59542;37.950;-122.338;2023-03-01T05:26:17;100747.34;;;7.51;72.08
70009;BME280;59542;37.950;-122.338;2023-03-01T05:28:44;100740.88;;;7.82;71.39
70009;BME280;59542;37.950;-122.338;2023-03-01T05:31:09;100746.22;;;8.03;70.86
70009;BME280;59542;37.950;-122.338;2023-03-01T05:33:36;100751.03;;;7.72;71.64
70009;BME280;59542;37.950;-122.338;2023-03-01T05:36:03;100754.84;;;7.62;72.54
70009;BME280;59542;37.950;-122.338;2023-03-01T05:38:29;100734.91;;;7.58;72.74
70009;BME280;59542;37.950;-122.338;2023-03-01T05:40:55;100726.56;;;7.61;73.38
70009;BME280;59542;37.950;-122.338;2023-03-01T05:43:21;100717.09;;;7.59;73.73
70009;BME280;59542;37.950;-122.338;2023-03-01T05:45:46;100722.78;;;7.77;71.90
70009;BME280;59542;37.950;-122.338;2023-03-01T05:48:12;100719.81;;;7.87;72.92
70009;BME280;59542;37.950;-122.338;2023-03-01T05:50:40;100725.59;;;7.69;72.57
70009;BME280;59542;37.950;-122.338;2023-03-01T05:53:11;100704.47;;;7.46;74.32
70009;BME280;59542;37.950;-122.338;2023-03-01T05:55:37;100702.22;;;7.28;74.05
70009;BME280;59542;37.950;-122.338;2023-03-01T05:58:05;100690.25;;;7.39;73.63
70009;BME280;59542;37.950;-122.338;2023-03-01T06:00:31;100665.13;;;7.27;70.84
70009;BME280;59542;37.950;-122.338;2023-03-01T06:02:58;100674.38;;;7.31;70.89
70009;BME280;59542;37.950;-122.338;2023-03-01T06:05:24;100685.81;;;7.10;72.42
70009;BME280;59542;37.950;-122.338;2023-03-01T06:07:50;100686.56;;;7.04;72.89
70009;BME280;59542;37.950;-122.338;2023-03-01T06:10:17;100694.63;;;7.10;73.37
70009;BME280;59542;37.950;-122.338;2023-03-01T06:12:43;100701.16;;;7.08;72.75
70009;BME280;59542;37.950;-122.338;2023-03-01T06:15:10;100704.50;;;6.95;73.41
70009;BME280;59542;37.950;-122.338;2023-03-01T06:17:37;100705.41;;;7.02;73.52
70009;BME280;59542;37.950;-122.338;2023-03-01T06:20:04;100700.06;;;7.02;74.16
70009;BME280;59542;37.950;-122.338;2023-03-01T06:22:30;100699.59;;;7.13;73.75
70009;BME280;59542;37.950;-122.338;2023-03-01T06:24:56;100691.34;;;7.08;73.88
70009;BME280;59542;37.950;-122.338;2023-03-01T06:27:22;100686.66;;;7.10;73.62
70009;BME280;59542;37.950;-122.338;2023-03-01T06:29:48;100691.34;;;7.08;73.13
70009;BME280;59542;37.950;-122.338;2023-03-01T06:32:14;100690.31;;;7.09;73.11
70009;BME280;59542;37.950;-122.338;2023-03-01T06:34:40;100688.69;;;7.08;72.88
70009;BME280;59542;37.950;-122.338;2023-03-01T06:37:06;100691.72;;;7.05;72.06
70009;BME280;59542;37.950;-122.338;2023-03-01T06:39:32;100691.59;;;7.13;70.95
70009;BME280;59542;37.950;-122.338;2023-03-01T06:41:58;100683.34;;;7.08;70.59
70009;BME280;59542;37.950;-122.338;2023-03-01T06:44:24;100675.44;;;7.15;69.14
70009;BME280;59542;37.950;-122.338;2023-03-01T06:46:49;100668.06;;;6.96;69.45
70009;BME280;59542;37.950;-122.338;2023-03-01T06:49:15;100674.41;;;6.95;69.83
70009;BME280;59542;37.950;-122.338;2023-03-01T06:51:43;100679.00;;;6.86;69.99
70009;BME280;59542;37.950;-122.338;2023-03-01T06:54:09;100670.53;;;6.82;70.81
70009;BME280;59542;37.950;-122.338;2023-03-01T06:56:35;100675.69;;;6.84;70.65
70009;BME280;59542;37.950;-122.338;2023-03-01T06:59:01;100675.34;;;6.57;71.36
70009;BME280;59542;37.950;-122.338;2023-03-01T07:01:28;100673.31;;;6.59;71.28
70009;BME280;59542;37.950;-122.338;2023-03-01T07:03:54;100675.25;;;6.36;72.42
70009;BME280;59542;37.950;-122.338;2023-03-01T07:06:20;100670.56;;;6.38;71.92
70009;BME280;59542;37.950;-122.338;2023-03-01T07:08:45;100664.72;;;6.28;71.18
70009;BME280;59542;37.950;-122.338;2023-03-01T07:11:11;100669.47;;;6.18;71.58
70009;BME280;59542;37.950;-122.338;2023-03-01T07:13:37;100674.41;;;6.21;71.55
70009;BME280;59542;37.950;-122.338;2023-03-01T07:16:03;100675.13;;;6.15;72.00
70009;BME280;59542;37.950;-122.338;2023-03-01T07:18:29;100682.44;;;5.98;73.35
70009;BME280;59542;37.950;-122.338;2023-03-01T07:20:55;100694.09;;;6.12;73.39
70009;BME280;59542;37.950;-122.338;2023-03-01T07:23:20;100685.75;;;6.00;73.44
70009;BME280;59542;37.950;-122.338;2023-03-01T07:25:53;100692.81;;;6.07;72.55
70009;BME280;59542;37.950;-122.338;2023-03-01T07:28:19;100681.88;;;6.02;71.83
70009;BME280;59542;37.950;-122.338;2023-03-01T07:30:45;100681.31;;;5.92;71.12
70009;BME280;59542;37.950;-122.338;2023-03-01T07:33:11;100676.88;;;5.85;71.50
70009;BME280;59542;37.950;-122.338;2023-03-01T07:35:37;100680.19;;;5.64;72.82
70009;BME280;59542;37.950;-122.338;2023-03-01T07:38:02;100669.66;;;5.55;73.36
70009;BME280;59542;37.950;-122.338;2023-03-01T07:40:28;100673.16;;;5.71;74.11
70009;BME280;59542;37.950;-122.338;2023-03-01T07:42:55;100670.06;;;5.67;74.30
70009;BME280;59542;37.950;-122.338;2023-03-01T07:45:21;100658.00;;;5.79;74.09
70009;BME280;59542;37.950;-122.338;2023-03-01T07:47:46;100661.59;;;5.64;74.35
70009;BME280;59542;37.950;-122.338;2023-03-01T07:50:12;100664.47;;;5.77;74.21
70009;BME280;59542;37.950;-122.338;2023-03-01T07:52:38;100664.91;;;5.89;73.67
70009;BME280;59542;37.950;-122.338;2023-03-01T07:55:04;100672.19;;;5.95;73.01
70009;BME280;59542;37.950;-122.338;2023-03-01T07:57:30;100665.47;;;5.99;73.13
70009;BME280;59542;37.950;-122.338;2023-03-01T07:59:56;100669.44;;;5.80;73.33
70009;BME280;59542;37.950;-122.338;2023-03-01T08:02:22;100659.16;;;5.77;74.27
70009;BME280;59542;37.950;-122.338;2023-03-01T08:04:48;100663.13;;;5.81;74.23
70009;BME280;59542;37.950;-122.338;2023-03-01T08:07:14;100662.19;;;5.97;72.52
70009;BME280;59542;37.950;-122.338;2023-03-01T08:09:40;100670.44;;;6.02;71.36
70009;BME280;59542;37.950;-122.338;2023-03-01T08:12:06;100661.56;;;5.87;72.40
70009;BME280;59542;37.950;-122.338;2023-03-01T08:14:32;100672.09;;;5.80;72.42
70009;BME280;59542;37.950;-122.338;2023-03-01T08:16:58;100672.72;;;5.82;71.11
70009;BME280;59542;37.950;-122.338;2023-03-01T08:19:23;100676.69;;;5.86;70.04
70009;BME280;59542;37.950;-122.338;2023-03-01T08:21:49;100669.50;;;5.72;70.22
70009;BME280;59542;37.950;-122.338;2023-03-01T08:24:15;100674.69;;;5.65;70.09
70009;BME280;59542;37.950;-122.338;2023-03-01T08:26:41;100678.31;;;5.72;69.34
70009;BME280;59542;37.950;-122.338;2023-03-01T08:29:07;100668.09;;;5.84;67.82
70009;BME280;59542;37.950;-122.338;2023-03-01T08:31:34;100668.97;;;5.53;68.39
70009;BME280;59542;37.950;-122.338;2023-03-01T08:34:01;100677.13;;;5.52;69.29
70009;BME280;59542;37.950;-122.338;2023-03-01T08:36:28;100674.09;;;5.55;68.65
70009;BME280;59542;37.950;-122.338;2023-03-01T08:38:54;100668.16;;;5.53;68.01
70009;BME280;59542;37.950;-122.338;2023-03-01T08:41:20;100680.19;;;5.41;68.06
70009;BME280;59542;37.950;-122.338;2023-03-01T08:43:46;100683.56;;;5.35;68.99
70009;BME280;59542;37.950;-122.338;2023-03-01T08:46:12;100683.44;;;5.51;67.44
70009;BME280;59542;37.950;-122.338;2023-03-01T08:48:38;100683.31;;;5.44;66.82
70009;BME280;59542;37.950;-122.338;2023-03-01T08:51:11;100686.41;;;5.25;67.31
70009;BME280;59542;37.950;-122.338;2023-03-01T08:53:38;100687.50;;;5.08;67.99
70009;BME280;59542;37.950;-122.338;2023-03-01T08:56:04;100685.28;;;5.19;66.70
70009;BME280;59542;37.950;-122.338;2023-03-01T08:58:30;100683.28;;;5.21;67.43
70009;BME280;59542;37.950;-122.338;2023-03-01T09:00:56;100677.41;;;5.11;67.87
70009;BME280;59542;37.950;-122.338;2023-03-01T09:03:22;100683.13;;;5.23;67.25
70009;BME280;59542;37.950;-122.338;2023-03-01T09:05:49;100683.97;;;5.15;67.34
70009;BME280;59542;37.950;-122.338;2023-03-01T09:08:16;100688.53;;;4.98;67.37
70009;BME280;59542;37.950;-122.338;2023-03-01T09:10:42;100695.50;;;4.99;67.06
70009;BME280;59542;37.950;-122.338;2023-03-01T09:13:08;100696.16;;;5.01;67.63
70009;BME280;59542;37.950;-122.338;2023-03-01T09:15:36;100695.66;;;5.06;66.84
70009;BME280;59542;37.950;-122.338;2023-03-01T09:18:02;100689.03;;;5.02;67.17
70009;BME280;59542;37.950;-122.338;2023-03-01T09:20:28;100691.19;;;4.98;67.25
70009;BME280;59542;37.950;-122.338;2023-03-01T09:22:54;100688.41;;;5.00;67.65
70009;BME280;59542;37.950;-122.338;2023-03-01T09:25:19;100686.91;;;4.97;67.51
70009;BME280;59542;37.950;-122.338;2023-03-01T09:27:45;100679.19;;;4.80;67.55
70009;BME280;59542;37.950;-122.338;2023-03-01T09:30:11;100682.78;;;4.95;67.81
70009;BME280;59542;37.950;-122.338;2023-03-01T09:32:37;100681.59;;;4.97;67.67
70009;BME280;59542;37.950;-122.338;2023-03-01T09:35:08;100684.22;;;5.06;67.61
70009;BME280;59542;37.950;-122.338;2023-03-01T09:37:34;100692.84;;;4.99;68.00
70009;BME280;59542;37.950;-122.338;2023-03-01T09:40:01;100680.63;;;4.90;68.01
70009;BME280;59542;37.950;-122.338;2023-03-01T09:42:27;100685.28;;;4.88;68.86
70009;BME280;59542;37.950;-122.338;2023-03-01T09:47:51;100680.13;;;4.95;67.52
70009;BME280;59542;37.950;-122.338;2023-03-01T09:50:18;100667.69;;;4.95;67.85
70009;BME280;59542;37.950;-122.338;2023-03-01T09:52:52;100670.03;;;4.90;67.96
70009;BME280;59542;37.950;-122.338;2023-03-01T09:55:28;100670.09;;;5.05;67.71
70009;BME280;59542;37.950;-122.338;2023-03-01T09:57:55;100675.78;;;4.94;67.81
70009;BME280;59542;37.950;-122.338;2023-03-01T10:00:29;100671.25;;;4.71;68.57
70009;BME280;59542;37.950;-122.338;2023-03-01T10:02:57;100670.72;;;4.84;69.09
70009;BME280;59542;37.950;-122.338;2023-03-01T10:05:36;100672.38;;;4.85;69.18
70009;BME280;59542;37.950;-122.338;2023-03-01T10:08:15;100672.94;;;4.72;70.53
70009;BME280;59542;37.950;-122.338;2023-03-01T10:10:46;100678.06;;;4.66;69.64
70009;BME280;59542;37.950;-122.338;2023-03-01T10:15:49;100680.16;;;4.87;68.38
70009;BME280;59542;37.950;-122.338;2023-03-01T10:18:22;100671.25;;;4.71;68.53
70009;BME280;59542;37.950;-122.338;2023-03-01T10:20:59;100671.94;;;4.65;68.73
70009;BME280;59542;37.950;-122.338;2023-03-01T10:23:25;100668.78;;;4.70;67.94
70009;BME280;59542;37.950;-122.338;2023-03-01T10:31:08;100680.13;;;4.56;68.98
70009;BME280;59542;37.950;-122.338;2023-03-01T10:33:37;100674.00;;;4.47;69.23
70009;BME280;59542;37.950;-122.338;2023-03-01T10:36:05;100666.91;;;4.39;67.23
70009;BME280;59542;37.950;-122.338;2023-03-01T10:38:31;100671.53;;;4.37;67.76
70009;BME280;59542;37.950;-122.338;2023-03-01T10:41:12;100668.25;;;4.35;68.21
70009;BME280;59542;37.950;-122.338;2023-03-01T10:49:07;100665.13;;;4.23;70.04
70009;BME280;59542;37.950;-122.338;2023-03-01T10:51:33;100654.84;;;4.29;69.45
70009;BME280;59542;37.950;-122.338;2023-03-01T10:53:59;100659.81;;;4.23;69.39
70009;BME280;59542;37.950;-122.338;2023-03-01T10:56:25;100653.84;;;4.30;68.47
70009;BME280;59542;37.950;-122.338;2023-03-01T10:58:58;100644.44;;;4.19;68.81
70009;BME280;59542;37.950;-122.338;2023-03-01T11:01:25;100650.72;;;4.18;69.52
70009;BME280;59542;37.950;-122.338;2023-03-01T11:04:13;100649.22;;;4.23;69.84
70009;BME280;59542;37.950;-122.338;2023-03-01T11:06:38;100655.69;;;4.21;69.79
70009;BME280;59542;37.950;-122.338;2023-03-01T11:11:40;100656.72;;;4.12;69.09
70009;BME280;59542;37.950;-122.338;2023-03-01T11:14:07;100651.72;;;4.09;70.10
70009;BME280;59542;37.950;-122.338;2023-03-01T11:16:39;100651.06;;;4.15;69.93
70009;BME280;59542;37.950;-122.338;2023-03-01T11:21:35;100650.25;;;4.06;70.30
70009;BME280;59542;37.950;-122.338;2023-03-01T11:24:03;100655.38;;;4.08;70.12
70009;BME280;59542;37.950;-122.338;2023-03-01T11:26:30;100652.75;;;4.08;70.36
70009;BME280;59542;37.950;-122.338;2023-03-01T11:28:58;100650.09;;;4.00;71.29
70009;BME280;59542;37.950;-122.338;2023-03-01T11:31:27;100651.91;;;3.99;70.82
70009;BME280;59542;37.950;-122.338;2023-03-01T11:33:58;100653.72;;;3.98;71.23
70009;BME280;59542;37.950;-122.338;2023-03-01T11:41:48;100648.94;;;3.94;70.93
70009;BME280;59542;37.950;-122.338;2023-03-01T11:44:22;100648.78;;;3.95;70.26
70009;BME280;59542;37.950;-122.338;2023-03-01T11:46:51;100654.75;;;3.89;70.44
70009;BME280;59542;37.950;-122.338;2023-03-01T11:54:27;100659.38;;;3.87;69.73
70009;BME280;59542;37.950;-122.338;2023-03-01T12:10:48;100681.56;;;3.78;69.09
70009;BME280;59542;37.950;-122.338;2023-03-01T12:18:43;100707.03;;;3.63;70.00
70009;BME280;59542;37.950;-122.338;2023-03-01T12:21:49;100713.31;;;3.70;70.08
70009;BME280;59542;37.950;-122.338;2023-03-01T12:29:07;100726.19;;;3.49;71.80
70009;BME280;59542;37.950;-122.338;2023-03-01T12:31:52;100724.72;;;3.62;71.92
70009;BME280;59542;37.950;-122.338;2023-03-01T12:34:45;100733.50;;;3.63;72.07
70009;BME280;59542;37.950;-122.338;2023-03-01T12:39:51;100732.50;;;3.56;71.32
70009;BME280;59542;37.950;-122.338;2023-03-01T12:49:51;100744.88;;;3.55;70.77
70009;BME280;59542;37.950;-122.338;2023-03-01T12:54:51;100741.88;;;3.42;70.54
70009;BME280;59542;37.950;-122.338;2023-03-01T12:57:30;100751.81;;;3.40;71.08
70009;BME280;59542;37.950;-122.338;2023-03-01T13:10:34;100775.44;;;3.33;72.63
70009;BME280;59542;37.950;-122.338;2023-03-01T13:13:14;100777.44;;;3.39;72.60
70009;BME280;59542;37.950;-122.338;2023-03-01T13:15:43;100785.06;;;3.42;71.59
70009;BME280;59542;37.950;-122.338;2023-03-01T13:33:57;100836.44;;;3.32;71.46
70009;BME280;59542;37.950;-122.338;2023-03-01T13:38:56;100843.91;;;3.36;70.89
70009;BME280;59542;37.950;-122.338;2023-03-01T13:44:20;100841.53;;;3.25;71.15
70009;BME280;59542;37.950;-122.338;2023-03-01T13:46:47;100847.97;;;3.23;71.66
70009;BME280;59542;37.950;-122.338;2023-03-01T13:49:16;100855.75;;;3.24;72.00
70009;BME280;59542;37.950;-122.338;2023-03-01T13:51:46;100872.44;;;3.25;71.86
70009;BME280;59542;37.950;-122.338;2023-03-01T13:54:12;100873.91;;;3.19;72.22
70009;BME280;59542;37.950;-122.338;2023-03-01T13:56:39;100865.16;;;3.18;72.18
70009;BME280;59542;37.950;-122.338;2023-03-01T13:59:06;100882.63;;;3.11;73.12
70009;BME280;59542;37.950;-122.338;2023-03-01T14:01:38;100888.50;;;3.31;72.89
70009;BME280;59542;37.950;-122.338;2023-03-01T14:04:17;100898.72;;;3.18;73.45
70009;BME280;59542;37.950;-122.338;2023-03-01T14:06:45;100905.69;;;3.27;73.29
70009;BME280;59542;37.950;-122.338;2023-03-01T14:14:31;100923.06;;;3.30;73.57
70009;BME280;59542;37.950;-122.338;2023-03-01T14:19:46;100922.81;;;3.15;72.53
70009;BME280;59542;37.950;-122.338;2023-03-01T14:24:39;100918.91;;;3.27;70.21
70009;BME280;59542;37.950;-122.338;2023-03-01T14:27:10;100916.53;;;3.16;70.51
70009;BME280;59542;37.950;-122.338;2023-03-01T14:29:38;100928.16;;;3.23;69.81
70009;BME280;59542;37.950;-122.338;2023-03-01T14:32:20;100921.31;;;3.12;70.53
70009;BME280;59542;37.950;-122.338;2023-03-01T14:34:47;100927.81;;;3.18;70.24
70009;BME280;59542;37.950;-122.338;2023-03-01T14:39:45;100934.53;;;3.12;68.09
70009;BME280;59542;37.950;-122.338;2023-03-01T14:42:12;100944.44;;;3.10;69.17